sensor_id;sensor_type;location;lat;lon;timestamp;temperature;humidity
3644;DHT22;1838;50.742;7.158;2023-04-25T00:01:36;9.90;99.90
3644;DHT22;1838;50.742;7.158;2023-04-25T00:04:03;9.90;99.90
3644;DHT22;1838;50.742;7.158;2023-04-25T00:06:31;9.80;99.90
3644;DHT22;1838;50.742;7.158;2023-04-25T00:08:57;9.80;99.90
3644;DHT22;1838;50.742;7.158;2023-04-25T00:11:23;9.80;99.90
3644;DHT22;1838;50.742;7.158;2023-04-25T00:13:49;9.70;99.90
3644;DHT22;1838;50.742;7.158;2023-04-25T00:16:16;9.70;99.90
3644;DHT22;1838;50.742;7.158;2023-04-25T00:18:42;9.70;99.90
3644;DHT22;1838;50.742;7.158;2023-04-25T00:21:08;9.70;99.90
3644;DHT22;1838;50.742;7.158;2023-04-25T00:23:33;9.60;99.90
3644;DHT22;1838;50.742;7.158;2023-04-25T00:26:02;9.60;99.90
3644;DHT22;1838;50.742;7.158;2023-04-25T00:28:27;9.60;99.90
3644;DHT22;1838;50.742;7.158;2023-04-25T00:30:53;9.60;99.90
3644;DHT22;1838;50.742;7.158;2023-04-25T00:33:18;9.50;99.90
3644;DHT22;1838;50.742;7.158;2023-04-25T00:35:44;9.50;99.90
3644;DHT22;1838;50.742;7.158;2023-04-25T00:38:09;9.40;99.90
3644;DHT22;1838;50.742;7.158;2023-04-25T00:40:35;9.40;99.90
3644;DHT22;1838;50.742;7.158;2023-04-25T00:43:00;9.40;99.90
3644;DHT22;1838;50.742;7.158;2023-04-25T00:45:29;9.30;99.90
3644;DHT22;1838;50.742;7.158;2023-04-25T00:47:55;9.30;99.90
3644;DHT22;1838;50.742;7.158;2023-04-25T00:50:21;9.30;99.90
3644;DHT22;1838;50.742;7.158;2023-04-25T00:52:47;9.20;99.90
3644;DHT22;1838;50.742;7.158;2023-04-25T00:55:12;9.20;99.90
3644;DHT22;1838;50.742;7.158;2023-04-25T00:57:38;9.20;99.90
3644;DHT22;1838;50.742;7.158;2023-04-25T01:00:05;9.20;99.90
3644;DHT22;1838;50.742;7.158;2023-04-25T01:02:33;9.10;99.90
3644;DHT22;1838;50.742;7.158;2023-04-25T01:04:58;9.10;99.90
3644;DHT22;1838;50.742;7.158;2023-04-25T01:07:24;9.10;99.90
3644;DHT22;1838;50.742;7.158;2023-04-25T01:09:52;9.00;99.90
3644;DHT22;1838;50.742;7.158;2023-04-25T01:12:17;9.00;99.90
3644;DHT22;1838;50.742;7.158;2023-04-25T01:14:43;9.00;99.90
3644;DHT22;1838;50.742;7.158;2023-04-25T01:17:09;8.90;99.90
3644;DHT22;1838;50.742;7.158;2023-04-25T01:19:35;8.90;99.90
3644;DHT22;1838;50.742;7.158;2023-04-25T01:22:01;8.80;99.90
3644;DHT22;1838;50.742;7.158;2023-04-25T01:24:27;8.80;99.90
3644;DHT22;1838;50.742;7.158;2023-04-25T01:26:53;8.80;99.90
3644;DHT22;1838;50.742;7.158;2023-04-25T01:29:22;8.70;99.90
3644;DHT22;1838;50.742;7.158;2023-04-25T01:31:48;8.70;99.90
3644;DHT22;1838;50.742;7.158;2023-04-25T01:34:14;8.70;99.90
3644;DHT22;1838;50.742;7.158;2023-04-25T01:36:39;8.60;99.90
3644;DHT22;1838;50.742;7.158;2023-04-25T01:39:06;8.60;99.90
3644;DHT22;1838;50.742;7.158;2023-04-25T01:41:32;8.50;99.90
3644;DHT22;1838;50.742;7.158;2023-04-25T01:43:57;8.50;99.90
3644;DHT22;1838;50.742;7.158;2023-04-25T01:46:23;8.50;99.90
3644;DHT22;1838;50.742;7.158;2023-04-25T01:48:49;8.40;99.90
3644;DHT22;1838;50.742;7.158;2023-04-25T01:51:15;8.30;99.90
3644;DHT22;1838;50.742;7.158;2023-04-25T01:53:40;8.20;99.90
3644;DHT22;1838;50.742;7.158;2023-04-25T01:56:06;8.10;99.90
3644;DHT22;1838;50.742;7.158;2023-04-25T01:58:32;7.90;99.90
3644;DHT22;1838;50.742;7.158;2023-04-25T02:00:57;7.80;99.90
3644;DHT22;1838;50.742;7.158;2023-04-25T02:03:23;7.70;99.90
3644;DHT22;1838;50.742;7.158;2023-04-25T02:05:48;7.70;99.90
3644;DHT22;1838;50.742;7.158;2023-04-25T02:08:15;7.60;99.90
3644;DHT22;1838;50.742;7.158;2023-04-25T02:10:41;7.60;99.90
3644;DHT22;1838;50.742;7.158;2023-04-25T02:13:07;7.50;99.90
3644;DHT22;1838;50.742;7.158;2023-04-25T02:15:32;7.50;99.90
3644;DHT22;1838;50.742;7.158;2023-04-25T02:17:58;7.50;99.90
3644;DHT22;1838;50.742;7.158;2023-04-25T02:20:25;7.50;99.90
3644;DHT22;1838;50.742;7.158;2023-04-25T02:22:51;7.60;99.90
3644;DHT22;1838;50.742;7.158;2023-04-25T02:25:18;7.60;99.90
3644;DHT22;1838;50.742;7.158;2023-04-25T02:27:45;7.50;99.90
3644;DHT22;1838;50.742;7.158;2023-04-25T02:30:11;7.50;99.90
3644;DHT22;1838;50.742;7.158;2023-04-25T02:32:37;7.40;99.90
3644;DHT22;1838;50.742;7.158;2023-04-25T02:35:03;7.40;99.90
3644;DHT22;1838;50.742;7.158;2023-04-25T02:37:35;7.40;99.90
3644;DHT22;1838;50.742;7.158;2023-04-25T02:40:01;7.50;99.90
3644;DHT22;1838;50.742;7.158;2023-04-25T02:42:27;7.50;99.90
3644;DHT22;1838;50.742;7.158;2023-04-25T02:44:52;7.60;99.90
3644;DHT22;1838;50.742;7.158;2023-04-25T02:47:18;7.60;99.90
3644;DHT22;1838;50.742;7.158;2023-04-25T02:49:44;7.70;99.90
3644;DHT22;1838;50.742;7.158;2023-04-25T02:52:10;7.80;99.90
3644;DHT22;1838;50.742;7.158;2023-04-25T02:54:37;7.80;99.90
3644;DHT22;1838;50.742;7.158;2023-04-25T02:57:03;7.90;99.90
3644;DHT22;1838;50.742;7.158;2023-04-25T02:59:28;8.00;99.90
3644;DHT22;1838;50.742;7.158;2023-04-25T03:01:54;8.00;99.90
3644;DHT22;1838;50.742;7.158;2023-04-25T03:04:20;8.00;99.90
3644;DHT22;1838;50.742;7.158;2023-04-25T03:06:46;8.00;99.90
3644;DHT22;1838;50.742;7.158;2023-04-25T03:09:11;8.00;99.90
3644;DHT22;1838;50.742;7.158;2023-04-25T03:11:38;8.00;99.90
3644;DHT22;1838;50.742;7.158;2023-04-25T03:14:04;8.00;99.90
3644;DHT22;1838;50.742;7.158;2023-04-25T03:16:29;8.10;99.90
3644;DHT22;1838;50.742;7.158;2023-04-25T03:18:56;8.10;99.90
3644;DHT22;1838;50.742;7.158;2023-04-25T03:21:22;8.10;99.90
3644;DHT22;1838;50.742;7.158;2023-04-25T03:23:48;8.10;99.90
3644;DHT22;1838;50.742;7.158;2023-04-25T03:26:13;8.00;99.90
3644;DHT22;1838;50.742;7.158;2023-04-25T03:28:39;8.00;99.90
3644;DHT22;1838;50.742;7.158;2023-04-25T03:31:05;7.90;99.90
3644;DHT22;1838;50.742;7.158;2023-04-25T03:33:31;7.90;99.90
3644;DHT22;1838;50.742;7.158;2023-04-25T03:35:57;7.90;99.90
3644;DHT22;1838;50.742;7.158;2023-04-25T03:38:22;7.90;99.90
3644;DHT22;1838;50.742;7.158;2023-04-25T03:40:50;7.80;99.90
3644;DHT22;1838;50.742;7.158;2023-04-25T03:43:16;7.70;99.90
3644;DHT22;1838;50.742;7.158;2023-04-25T03:45:41;7.60;99.90
3644;DHT22;1838;50.742;7.158;2023-04-25T03:48:07;7.60;99.90
3644;DHT22;1838;50.742;7.158;2023-04-25T03:50:32;7.50;99.90
3644;DHT22;1838;50.742;7.158;2023-04-25T03:52:58;7.50;99.90
3644;DHT22;1838;50.742;7.158;2023-04-25T03:55:23;7.40;99.90
3644;DHT22;1838;50.742;7.158;2023-04-25T03:57:49;7.40;99.90
3644;DHT22;1838;50.742;7.158;2023-04-25T04:00:14;7.30;99.90
3644;DHT22;1838;50.742;7.158;2023-04-25T04:02:40;7.30;99.90
3644;DHT22;1838;50.742;7.158;2023-04-25T04:05:06;7.30;99.90
3644;DHT22;1838;50.742;7.158;2023-04-25T04:07:32;7.30;99.90
3644;DHT22;1838;50.742;7.158;2023-04-25T04:09:58;7.30;99.90
3644;DHT22;1838;50.742;7.158;2023-04-25T04:12:24;7.30;99.90
3644;DHT22;1838;50.742;7.158;2023-04-25T04:14:50;7.30;99.90
3644;DHT22;1838;50.742;7.158;2023-04-25T04:17:15;7.30;99.90
3644;DHT22;1838;50.742;7.158;2023-04-25T04:19:41;7.30;99.90
3644;DHT22;1838;50.742;7.158;2023-04-25T04:22:06;7.30;99.90
3644;DHT22;1838;50.742;7.158;2023-04-25T04:24:32;7.30;99.90
3644;DHT22;1838;50.742;7.158;2023-04-25T04:26:58;7.40;99.90
3644;DHT22;1838;50.742;7.158;2023-04-25T04:29:24;7.40;99.90
3644;DHT22;1838;50.742;7.158;2023-04-25T04:31:50;7.50;99.90
3644;DHT22;1838;50.742;7.158;2023-04-25T04:34:17;7.40;99.90
3644;DHT22;1838;50.742;7.158;2023-04-25T04:36:44;7.50;99.90
3644;DHT22;1838;50.742;7.158;2023-04-25T04:39:12;7.50;99.90
3644;DHT22;1838;50.742;7.158;2023-04-25T04:41:39;7.60;99.90
3644;DHT22;1838;50.742;7.158;2023-04-25T04:44:05;7.70;99.90
3644;DHT22;1838;50.742;7.158;2023-04-25T04:46:32;7.60;99.90
3644;DHT22;1838;50.742;7.158;2023-04-25T04:49:05;7.70;99.90
3644;DHT22;1838;50.742;7.158;2023-04-25T04:51:31;7.70;99.90
3644;DHT22;1838;50.742;7.158;2023-04-25T04:53:57;7.80;99.90
3644;DHT22;1838;50.742;7.158;2023-04-25T04:56:24;7.80;99.90
3644;DHT22;1838;50.742;7.158;2023-04-25T04:58:51;7.80;99.90
3644;DHT22;1838;50.742;7.158;2023-04-25T05:01:16;7.90;99.90
3644;DHT22;1838;50.742;7.158;2023-04-25T05:03:42;7.80;99.90
3644;DHT22;1838;50.742;7.158;2023-04-25T05:06:07;7.90;99.90
3644;DHT22;1838;50.742;7.158;2023-04-25T05:08:34;7.80;99.90
3644;DHT22;1838;50.742;7.158;2023-04-25T05:10:59;7.90;99.90
3644;DHT22;1838;50.742;7.158;2023-04-25T05:13:25;7.90;99.90
3644;DHT22;1838;50.742;7.158;2023-04-25T05:15:50;7.90;99.90
3644;DHT22;1838;50.742;7.158;2023-04-25T05:18:16;8.00;99.90
3644;DHT22;1838;50.742;7.158;2023-04-25T05:20:41;8.00;99.90
3644;DHT22;1838;50.742;7.158;2023-04-25T05:23:07;8.10;99.90
3644;DHT22;1838;50.742;7.158;2023-04-25T05:25:33;8.10;99.90
3644;DHT22;1838;50.742;7.158;2023-04-25T05:27:58;8.10;99.90
3644;DHT22;1838;50.742;7.158;2023-04-25T05:30:24;8.10;99.90
3644;DHT22;1838;50.742;7.158;2023-04-25T05:32:49;8.20;99.90
3644;DHT22;1838;50.742;7.158;2023-04-25T05:35:15;8.20;99.90
3644;DHT22;1838;50.742;7.158;2023-04-25T05:37:41;8.30;99.90
3644;DHT22;1838;50.742;7.158;2023-04-25T05:40:07;8.30;99.90
3644;DHT22;1838;50.742;7.158;2023-04-25T05:42:33;8.30;99.90
3644;DHT22;1838;50.742;7.158;2023-04-25T05:44:58;8.40;99.90
3644;DHT22;1838;50.742;7.158;2023-04-25T05:47:24;8.50;99.90
3644;DHT22;1838;50.742;7.158;2023-04-25T05:49:50;8.50;99.90
3644;DHT22;1838;50.742;7.158;2023-04-25T05:52:15;8.50;99.90
3644;DHT22;1838;50.742;7.158;2023-04-25T05:54:41;8.60;99.90
3644;DHT22;1838;50.742;7.158;2023-04-25T05:57:06;8.60;99.90
3644;DHT22;1838;50.742;7.158;2023-04-25T05:59:32;8.60;99.90
3644;DHT22;1838;50.742;7.158;2023-04-25T06:01:57;8.70;99.90
3644;DHT22;1838;50.742;7.158;2023-04-25T06:04:23;8.70;99.90
3644;DHT22;1838;50.742;7.158;2023-04-25T06:06:48;8.80;99.90
3644;DHT22;1838;50.742;7.158;2023-04-25T06:09:14;8.90;99.90
3644;DHT22;1838;50.742;7.158;2023-04-25T06:11:40;8.90;99.90
3644;DHT22;1838;50.742;7.158;2023-04-25T06:14:06;8.90;99.90
3644;DHT22;1838;50.742;7.158;2023-04-25T06:16:32;8.90;99.90
3644;DHT22;1838;50.742;7.158;2023-04-25T06:18:57;9.00;99.90
3644;DHT22;1838;50.742;7.158;2023-04-25T06:21:23;9.10;99.90
3644;DHT22;1838;50.742;7.158;2023-04-25T06:23:48;9.00;99.90
3644;DHT22;1838;50.742;7.158;2023-04-25T06:26:13;9.00;99.90
3644;DHT22;1838;50.742;7.158;2023-04-25T06:28:39;9.00;99.90
3644;DHT22;1838;50.742;7.158;2023-04-25T06:31:05;9.00;99.90
3644;DHT22;1838;50.742;7.158;2023-04-25T06:33:31;9.00;99.90
3644;DHT22;1838;50.742;7.158;2023-04-25T06:35:56;8.90;99.90
3644;DHT22;1838;50.742;7.158;2023-04-25T06:38:22;9.00;99.90
3644;DHT22;1838;50.742;7.158;2023-04-25T06:40:47;9.00;99.90
3644;DHT22;1838;50.742;7.158;2023-04-25T06:43:13;9.10;99.90
3644;DHT22;1838;50.742;7.158;2023-04-25T06:45:38;9.30;99.90
3644;DHT22;1838;50.742;7.158;2023-04-25T06:48:04;9.40;99.90
3644;DHT22;1838;50.742;7.158;2023-04-25T06:50:29;9.50;99.90
3644;DHT22;1838;50.742;7.158;2023-04-25T06:52:55;9.70;99.90
3644;DHT22;1838;50.742;7.158;2023-04-25T06:55:20;9.90;99.90
3644;DHT22;1838;50.742;7.158;2023-04-25T06:57:46;10.10;99.90
3644;DHT22;1838;50.742;7.158;2023-04-25T07:00:12;10.30;99.90
3644;DHT22;1838;50.742;7.158;2023-04-25T07:02:37;10.50;99.90
3644;DHT22;1838;50.742;7.158;2023-04-25T07:05:03;10.70;99.90
3644;DHT22;1838;50.742;7.158;2023-04-25T07:07:30;11.10;99.90
3644;DHT22;1838;50.742;7.158;2023-04-25T07:09:56;11.40;99.90
3644;DHT22;1838;50.742;7.158;2023-04-25T07:12:21;11.70;99.90
3644;DHT22;1838;50.742;7.158;2023-04-25T07:14:47;11.80;99.90
3644;DHT22;1838;50.742;7.158;2023-04-25T07:17:12;11.80;99.90
3644;DHT22;1838;50.742;7.158;2023-04-25T07:19:38;11.80;99.90
3644;DHT22;1838;50.742;7.158;2023-04-25T07:22:05;11.90;99.90
3644;DHT22;1838;50.742;7.158;2023-04-25T07:24:31;12.00;99.90
3644;DHT22;1838;50.742;7.158;2023-04-25T07:26:56;12.40;99.90
3644;DHT22;1838;50.742;7.158;2023-04-25T07:29:23;12.90;99.90
3644;DHT22;1838;50.742;7.158;2023-04-25T07:31:49;13.40;99.90
3644;DHT22;1838;50.742;7.158;2023-04-25T07:34:14;13.80;99.90
3644;DHT22;1838;50.742;7.158;2023-04-25T07:36:41;14.30;99.90
3644;DHT22;1838;50.742;7.158;2023-04-25T07:39:06;14.40;99.90
3644;DHT22;1838;50.742;7.158;2023-04-25T07:41:32;14.10;99.90
3644;DHT22;1838;50.742;7.158;2023-04-25T07:43:58;13.90;99.90
3644;DHT22;1838;50.742;7.158;2023-04-25T07:46:23;13.50;99.90
3644;DHT22;1838;50.742;7.158;2023-04-25T07:48:49;13.30;99.90
3644;DHT22;1838;50.742;7.158;2023-04-25T07:51:15;13.00;99.90
3644;DHT22;1838;50.742;7.158;2023-04-25T07:53:40;12.90;99.90
3644;DHT22;1838;50.742;7.158;2023-04-25T07:56:06;12.80;99.90
3644;DHT22;1838;50.742;7.158;2023-04-25T07:58:31;12.70;99.90
3644;DHT22;1838;50.742;7.158;2023-04-25T08:00:57;12.70;99.90
3644;DHT22;1838;50.742;7.158;2023-04-25T08:03:22;12.60;99.90
3644;DHT22;1838;50.742;7.158;2023-04-25T08:05:48;12.50;99.90
3644;DHT22;1838;50.742;7.158;2023-04-25T08:08:13;12.40;99.90
3644;DHT22;1838;50.742;7.158;2023-04-25T08:10:39;12.30;99.90
3644;DHT22;1838;50.742;7.158;2023-04-25T08:13:05;12.40;99.90
3644;DHT22;1838;50.742;7.158;2023-04-25T08:15:31;12.70;99.90
3644;DHT22;1838;50.742;7.158;2023-04-25T08:17:56;12.80;99.90
3644;DHT22;1838;50.742;7.158;2023-04-25T08:20:22;13.10;99.90
3644;DHT22;1838;50.742;7.158;2023-04-25T08:22:47;13.30;99.90
3644;DHT22;1838;50.742;7.158;2023-04-25T08:25:14;13.10;99.90
3644;DHT22;1838;50.742;7.158;2023-04-25T08:27:39;13.00;99.90
3644;DHT22;1838;50.742;7.158;2023-04-25T08:30:06;12.90;99.90
3644;DHT22;1838;50.742;7.158;2023-04-25T08:32:33;13.00;99.90
3644;DHT22;1838;50.742;7.158;2023-04-25T08:34:59;12.90;99.90
3644;DHT22;1838;50.742;7.158;2023-04-25T08:37:24;12.70;99.90
3644;DHT22;1838;50.742;7.158;2023-04-25T08:39:51;12.60;99.90
3644;DHT22;1838;50.742;7.158;2023-04-25T08:42:19;12.50;99.90
3644;DHT22;1838;50.742;7.158;2023-04-25T08:44:48;12.40;99.90
3644;DHT22;1838;50.742;7.158;2023-04-25T08:47:13;12.10;99.90
3644;DHT22;1838;50.742;7.158;2023-04-25T08:49:44;12.00;99.90
3644;DHT22;1838;50.742;7.158;2023-04-25T08:52:11;11.90;99.90
3644;DHT22;1838;50.742;7.158;2023-04-25T08:54:42;11.90;99.90
3644;DHT22;1838;50.742;7.158;2023-04-25T08:57:09;11.80;99.90
3644;DHT22;1838;50.742;7.158;2023-04-25T08:59:35;11.90;99.90
3644;DHT22;1838;50.742;7.158;2023-04-25T09:02:03;11.90;99.90
3644;DHT22;1838;50.742;7.158;2023-04-25T09:04:32;12.00;99.90
3644;DHT22;1838;50.742;7.158;2023-04-25T09:06:57;12.20;99.90
3644;DHT22;1838;50.742;7.158;2023-04-25T09:09:24;12.30;99.90
3644;DHT22;1838;50.742;7.158;2023-04-25T09:11:49;12.60;99.90
3644;DHT22;1838;50.742;7.158;2023-04-25T09:14:19;13.00;99.90
3644;DHT22;1838;50.742;7.158;2023-04-25T09:19:27;13.70;95.50
3644;DHT22;1838;50.742;7.158;2023-04-25T09:21:57;14.00;95.10
3644;DHT22;1838;50.742;7.158;2023-04-25T09:24:38;14.20;95.80
3644;DHT22;1838;50.742;7.158;2023-04-25T09:27:08;14.30;95.00
3644;DHT22;1838;50.742;7.158;2023-04-25T09:29:35;14.20;90.80
3644;DHT22;1838;50.742;7.158;2023-04-25T09:32:19;14.10;88.70
3644;DHT22;1838;50.742;7.158;2023-04-25T09:34:48;13.90;88.10
3644;DHT22;1838;50.742;7.158;2023-04-25T09:37:18;14.00;90.20
3644;DHT22;1838;50.742;7.158;2023-04-25T09:39:45;14.00;90.40
3644;DHT22;1838;50.742;7.158;2023-04-25T09:42:13;13.90;88.80
3644;DHT22;1838;50.742;7.158;2023-04-25T09:44:43;13.80;89.30
3644;DHT22;1838;50.742;7.158;2023-04-25T09:47:10;13.70;90.50
3644;DHT22;1838;50.742;7.158;2023-04-25T09:49:39;13.60;90.30
3644;DHT22;1838;50.742;7.158;2023-04-25T09:52:06;13.50;90.10
3644;DHT22;1838;50.742;7.158;2023-04-25T09:54:32;13.40;90.10
3644;DHT22;1838;50.742;7.158;2023-04-25T09:56:58;13.30;89.50
3644;DHT22;1838;50.742;7.158;2023-04-25T09:59:29;13.10;90.80
3644;DHT22;1838;50.742;7.158;2023-04-25T10:01:57;13.10;92.20
3644;DHT22;1838;50.742;7.158;2023-04-25T10:04:24;13.20;93.70
3644;DHT22;1838;50.742;7.158;2023-04-25T10:06:53;13.40;93.30
3644;DHT22;1838;50.742;7.158;2023-04-25T10:09:20;13.40;93.10
3644;DHT22;1838;50.742;7.158;2023-04-25T10:11:46;13.40;91.60
3644;DHT22;1838;50.742;7.158;2023-04-25T10:14:16;13.40;92.10
3644;DHT22;1838;50.742;7.158;2023-04-25T10:16:41;13.60;93.50
3644;DHT22;1838;50.742;7.158;2023-04-25T10:19:09;13.60;93.30
3644;DHT22;1838;50.742;7.158;2023-04-25T10:21:40;13.60;94.00
3644;DHT22;1838;50.742;7.158;2023-04-25T10:24:10;13.60;92.90
3644;DHT22;1838;50.742;7.158;2023-04-25T10:26:35;13.60;93.10
3644;DHT22;1838;50.742;7.158;2023-04-25T10:29:03;13.60;92.00
3644;DHT22;1838;50.742;7.158;2023-04-25T10:31:32;13.60;91.50
3644;DHT22;1838;50.742;7.158;2023-04-25T10:33:59;13.40;90.70
3644;DHT22;1838;50.742;7.158;2023-04-25T10:36:25;13.40;89.00
3644;DHT22;1838;50.742;7.158;2023-04-25T10:38:53;13.40;91.00
3644;DHT22;1838;50.742;7.158;2023-04-25T10:41:20;13.40;90.10
3644;DHT22;1838;50.742;7.158;2023-04-25T10:43:47;13.60;88.90
3644;DHT22;1838;50.742;7.158;2023-04-25T10:46:22;13.60;85.70
3644;DHT22;1838;50.742;7.158;2023-04-25T10:49:01;13.60;83.70
3644;DHT22;1838;50.742;7.158;2023-04-25T10:54:01;13.60;88.90
3644;DHT22;1838;50.742;7.158;2023-04-25T10:56:29;13.40;88.30
3644;DHT22;1838;50.742;7.158;2023-04-25T10:59:09;13.30;88.20
3644;DHT22;1838;50.742;7.158;2023-04-25T11:04:03;12.90;90.00
3644;DHT22;1838;50.742;7.158;2023-04-25T11:06:29;12.80;91.10
3644;DHT22;1838;50.742;7.158;2023-04-25T11:08:57;12.60;91.30
3644;DHT22;1838;50.742;7.158;2023-04-25T11:11:22;12.40;91.70
3644;DHT22;1838;50.742;7.158;2023-04-25T11:13:49;12.40;93.40
3644;DHT22;1838;50.742;7.158;2023-04-25T11:16:16;12.40;94.00
3644;DHT22;1838;50.742;7.158;2023-04-25T11:18:43;12.40;95.10
3644;DHT22;1838;50.742;7.158;2023-04-25T11:21:09;12.30;95.60
3644;DHT22;1838;50.742;7.158;2023-04-25T11:23:35;12.30;96.00
3644;DHT22;1838;50.742;7.158;2023-04-25T11:26:02;12.40;96.50
3644;DHT22;1838;50.742;7.158;2023-04-25T11:28:28;12.30;95.60
3644;DHT22;1838;50.742;7.158;2023-04-25T11:30:53;12.30;96.20
3644;DHT22;1838;50.742;7.158;2023-04-25T11:33:23;12.40;95.40
3644;DHT22;1838;50.742;7.158;2023-04-25T11:35:49;12.50;94.90
3644;DHT22;1838;50.742;7.158;2023-04-25T11:38:15;12.70;94.10
3644;DHT22;1838;50.742;7.158;2023-04-25T11:40:41;12.90;93.30
3644;DHT22;1838;50.742;7.158;2023-04-25T11:43:06;13.00;91.70
3644;DHT22;1838;50.742;7.158;2023-04-25T11:45:32;13.10;90.60
3644;DHT22;1838;50.742;7.158;2023-04-25T11:47:58;13.20;91.50
3644;DHT22;1838;50.742;7.158;2023-04-25T11:50:23;13.20;91.50
3644;DHT22;1838;50.742;7.158;2023-04-25T11:52:49;13.00;91.20
3644;DHT22;1838;50.742;7.158;2023-04-25T11:55:17;12.90;91.90
3644;DHT22;1838;50.742;7.158;2023-04-25T11:57:44;12.70;91.70
3644;DHT22;1838;50.742;7.158;2023-04-25T12:00:15;12.60;92.40
3644;DHT22;1838;50.742;7.158;2023-04-25T12:02:55;12.40;93.30
3644;DHT22;1838;50.742;7.158;2023-04-25T12:05:30;12.20;94.40
3644;DHT22;1838;50.742;7.158;2023-04-25T12:07:58;12.10;94.70
3644;DHT22;1838;50.742;7.158;2023-04-25T12:10:37;12.00;95.50
3644;DHT22;1838;50.742;7.158;2023-04-25T12:13:26;11.80;95.20
3644;DHT22;1838;50.742;7.158;2023-04-25T12:15:56;11.90;93.80
3644;DHT22;1838;50.742;7.158;2023-04-25T12:18:23;11.90;92.10
3644;DHT22;1838;50.742;7.158;2023-04-25T12:20:52;11.90;89.20
3644;DHT22;1838;50.742;7.158;2023-04-25T12:23:25;11.90;87.60
3644;DHT22;1838;50.742;7.158;2023-04-25T12:25:51;11.90;90.10
3644;DHT22;1838;50.742;7.158;2023-04-25T12:28:22;12.20;91.10
3644;DHT22;1838;50.742;7.158;2023-04-25T12:31:05;12.30;88.60
3644;DHT22;1838;50.742;7.158;2023-04-25T12:33:36;12.30;86.60
3644;DHT22;1838;50.742;7.158;2023-04-25T12:36:03;12.50;85.40
3644;DHT22;1838;50.742;7.158;2023-04-25T12:38:39;12.60;85.90
3644;DHT22;1838;50.742;7.158;2023-04-25T12:41:05;12.70;83.80
3644;DHT22;1838;50.742;7.158;2023-04-25T12:43:31;12.90;84.60
3644;DHT22;1838;50.742;7.158;2023-04-25T12:45:57;13.00;83.60
3644;DHT22;1838;50.742;7.158;2023-04-25T12:48:23;13.00;82.80
3644;DHT22;1838;50.742;7.158;2023-04-25T12:50:49;13.10;84.90
3644;DHT22;1838;50.742;7.158;2023-04-25T12:53:20;13.20;83.90
3644;DHT22;1838;50.742;7.158;2023-04-25T12:55:47;13.50;83.30
3644;DHT22;1838;50.742;7.158;2023-04-25T12:58:16;13.60;82.20
3644;DHT22;1838;50.742;7.158;2023-04-25T13:00:43;13.80;82.30
3644;DHT22;1838;50.742;7.158;2023-04-25T13:03:09;14.00;83.30
3644;DHT22;1838;50.742;7.158;2023-04-25T13:05:36;14.40;83.10
3644;DHT22;1838;50.742;7.158;2023-04-25T13:08:02;14.60;80.50
3644;DHT22;1838;50.742;7.158;2023-04-25T13:10:27;14.80;81.10
3644;DHT22;1838;50.742;7.158;2023-04-25T13:12:53;15.00;76.40
3644;DHT22;1838;50.742;7.158;2023-04-25T13:15:19;15.20;79.00
3644;DHT22;1838;50.742;7.158;2023-04-25T13:17:45;15.30;71.30
3644;DHT22;1838;50.742;7.158;2023-04-25T13:20:11;15.20;64.70
3644;DHT22;1838;50.742;7.158;2023-04-25T13:22:37;15.20;65.20
3644;DHT22;1838;50.742;7.158;2023-04-25T13:25:04;15.50;67.30
3644;DHT22;1838;50.742;7.158;2023-04-25T13:27:30;15.60;65.30
3644;DHT22;1838;50.742;7.158;2023-04-25T13:29:58;15.70;63.30
3644;DHT22;1838;50.742;7.158;2023-04-25T13:32:23;15.40;61.90
3644;DHT22;1838;50.742;7.158;2023-04-25T13:34:49;15.30;62.90
3644;DHT22;1838;50.742;7.158;2023-04-25T13:37:14;15.30;63.50
3644;DHT22;1838;50.742;7.158;2023-04-25T13:39:40;15.30;63.00
3644;DHT22;1838;50.742;7.158;2023-04-25T13:42:06;14.70;60.20
3644;DHT22;1838;50.742;7.158;2023-04-25T13:44:31;14.40;62.80
3644;DHT22;1838;50.742;7.158;2023-04-25T13:46:57;14.10;63.00
3644;DHT22;1838;50.742;7.158;2023-04-25T13:49:23;14.00;67.40
3644;DHT22;1838;50.742;7.158;2023-04-25T13:51:48;13.70;69.00
3644;DHT22;1838;50.742;7.158;2023-04-25T13:54:13;13.50;70.40
3644;DHT22;1838;50.742;7.158;2023-04-25T13:56:40;13.40;72.10
3644;DHT22;1838;50.742;7.158;2023-04-25T13:59:07;13.10;73.40
3644;DHT22;1838;50.742;7.158;2023-04-25T14:01:33;13.00;75.30
3644;DHT22;1838;50.742;7.158;2023-04-25T14:04:01;12.70;73.20
3644;DHT22;1838;50.742;7.158;2023-04-25T14:06:27;12.60;70.80
3644;DHT22;1838;50.742;7.158;2023-04-25T14:08:53;12.50;75.40
3644;DHT22;1838;50.742;7.158;2023-04-25T14:11:19;12.40;75.80
3644;DHT22;1838;50.742;7.158;2023-04-25T14:13:45;12.40;76.50
3644;DHT22;1838;50.742;7.158;2023-04-25T14:16:11;12.40;77.80
3644;DHT22;1838;50.742;7.158;2023-04-25T14:18:37;12.60;80.00
3644;DHT22;1838;50.742;7.158;2023-04-25T14:21:02;12.70;78.30
3644;DHT22;1838;50.742;7.158;2023-04-25T14:23:28;12.70;80.60
3644;DHT22;1838;50.742;7.158;2023-04-25T14:25:53;12.80;80.90
3644;DHT22;1838;50.742;7.158;2023-04-25T14:28:19;13.00;81.00
3644;DHT22;1838;50.742;7.158;2023-04-25T14:30:45;13.20;77.20
3644;DHT22;1838;50.742;7.158;2023-04-25T14:33:10;13.30;74.80
3644;DHT22;1838;50.742;7.158;2023-04-25T14:35:36;13.30;73.30
3644;DHT22;1838;50.742;7.158;2023-04-25T14:38:02;13.20;71.60
3644;DHT22;1838;50.742;7.158;2023-04-25T14:40:28;13.30;72.30
3644;DHT22;1838;50.742;7.158;2023-04-25T14:42:53;13.30;72.00
3644;DHT22;1838;50.742;7.158;2023-04-25T14:45:19;13.40;71.60
3644;DHT22;1838;50.742;7.158;2023-04-25T14:47:44;13.50;72.60
3644;DHT22;1838;50.742;7.158;2023-04-25T14:50:10;13.70;72.50
3644;DHT22;1838;50.742;7.158;2023-04-25T14:52:36;13.80;70.30
3644;DHT22;1838;50.742;7.158;2023-04-25T14:55:02;14.00;71.60
3644;DHT22;1838;50.742;7.158;2023-04-25T14:57:31;14.20;71.40
3644;DHT22;1838;50.742;7.158;2023-04-25T14:59:57;14.40;69.50
3644;DHT22;1838;50.742;7.158;2023-04-25T15:02:24;14.30;67.40
3644;DHT22;1838;50.742;7.158;2023-04-25T15:04:49;14.40;68.80
3644;DHT22;1838;50.742;7.158;2023-04-25T15:07:15;14.40;67.80
3644;DHT22;1838;50.742;7.158;2023-04-25T15:09:40;14.50;67.30
3644;DHT22;1838;50.742;7.158;2023-04-25T15:12:06;14.30;63.20
3644;DHT22;1838;50.742;7.158;2023-04-25T15:14:32;14.20;64.30
3644;DHT22;1838;50.742;7.158;2023-04-25T15:16:59;14.20;64.50
3644;DHT22;1838;50.742;7.158;2023-04-25T15:19:25;14.10;65.00
3644;DHT22;1838;50.742;7.158;2023-04-25T15:21:51;14.20;66.00
3644;DHT22;1838;50.742;7.158;2023-04-25T15:24:16;13.90;62.80
3644;DHT22;1838;50.742;7.158;2023-04-25T15:26:42;13.70;62.80
3644;DHT22;1838;50.742;7.158;2023-04-25T15:29:07;13.50;62.20
3644;DHT22;1838;50.742;7.158;2023-04-25T15:31:33;13.30;61.00
3644;DHT22;1838;50.742;7.158;2023-04-25T15:33:58;13.30;61.90
3644;DHT22;1838;50.742;7.158;2023-04-25T15:36:24;13.20;59.90
3644;DHT22;1838;50.742;7.158;2023-04-25T15:38:50;13.20;62.40
3644;DHT22;1838;50.742;7.158;2023-04-25T15:41:17;13.30;64.60
3644;DHT22;1838;50.742;7.158;2023-04-25T15:43:42;13.40;61.50
3644;DHT22;1838;50.742;7.158;2023-04-25T15:46:08;13.50;61.50
3644;DHT22;1838;50.742;7.158;2023-04-25T15:48:33;13.40;58.60
3644;DHT22;1838;50.742;7.158;2023-04-25T15:50:59;13.30;58.40
3644;DHT22;1838;50.742;7.158;2023-04-25T15:53:25;13.30;58.70
3644;DHT22;1838;50.742;7.158;2023-04-25T15:55:50;13.20;59.50
3644;DHT22;1838;50.742;7.158;2023-04-25T15:58:16;13.30;61.00
3644;DHT22;1838;50.742;7.158;2023-04-25T16:00:42;13.30;62.00
3644;DHT22;1838;50.742;7.158;2023-04-25T16:03:07;13.20;62.50
3644;DHT22;1838;50.742;7.158;2023-04-25T16:05:33;13.10;62.30
3644;DHT22;1838;50.742;7.158;2023-04-25T16:07:59;13.00;63.10
3644;DHT22;1838;50.742;7.158;2023-04-25T16:10:25;13.10;63.40
3644;DHT22;1838;50.742;7.158;2023-04-25T16:12:51;13.10;63.80